Sao Felix do Piaui, Brazil
Current Conditions -  °F | °C
As of 12:00 PM on Friday 19 Dec 2014 (Local Time) from SBTE Reporting Station
Scattered Clouds Scattered Clouds  
Wind Chill: 88°   Ceiling: Unl
Heat Index: 93°   Visibility: 6mi
Dew Point: 70°   Wind: 7mph
Humidity: 55%   Direction: 220°SW
Pressure: 29.85"   Gusts: NA
Location:  5.95°S, 42.11°W
Report Text: SBTE 191500Z 22006KT 9999 SCT030 SCT100 31/21 Q1011
Loading
Personal Weather Stations






























Interactive Weather Map New forecast layout! Learn more

10-Day Weather Forecast

Advertisements
Track Severe Weather on mobile